createdAt,value
2022-10-23T00:00:44.686Z,15.00
2022-10-23T00:06:10.375Z,15.00
2022-10-23T00:11:15.805Z,15.00
2022-10-23T00:16:19.547Z,15.00
2022-10-23T00:21:24.665Z,15.00
2022-10-23T00:26:28.170Z,15.00
2022-10-23T00:31:31.472Z,15.00
2022-10-23T00:36:36.552Z,14.90
2022-10-23T00:41:39.840Z,14.90
2022-10-23T00:46:43.164Z,14.90
2022-10-23T00:51:52.510Z,14.90
2022-10-23T00:56:59.731Z,14.90
2022-10-23T01:02:03.201Z,14.80
2022-10-23T01:07:16.131Z,14.70
2022-10-23T01:12:25.128Z,14.60
2022-10-23T01:17:39.679Z,14.50
2022-10-23T01:23:13.289Z,14.40
2022-10-23T01:28:24.567Z,14.40
2022-10-23T01:33:34.164Z,14.30
2022-10-23T01:38:42.117Z,14.20
2022-10-23T01:43:50.905Z,14.10
2022-10-23T01:48:56.347Z,14.00
2022-10-23T01:54:01.870Z,13.90
2022-10-23T01:59:11.016Z,13.90
2022-10-23T02:04:19.364Z,13.90
2022-10-23T02:09:22.972Z,13.80
2022-10-23T02:14:37.561Z,13.80
2022-10-23T02:19:47.919Z,13.80
2022-10-23T02:24:54.583Z,13.80
2022-10-23T02:30:06.292Z,13.80
2022-10-23T02:35:10.193Z,13.80
2022-10-23T02:40:13.638Z,13.70
2022-10-23T02:45:24.835Z,13.70
2022-10-23T02:50:35.325Z,13.70
2022-10-23T02:55:47.634Z,13.70
2022-10-23T03:00:57.086Z,13.70
2022-10-23T03:06:00.865Z,13.70
2022-10-23T03:11:04.379Z,13.70
2022-10-23T03:16:09.655Z,13.70
2022-10-23T03:21:13.227Z,13.70
2022-10-23T03:26:16.996Z,13.80
2022-10-23T03:31:21.636Z,13.80
2022-10-23T03:36:24.962Z,13.80
2022-10-23T03:41:28.344Z,13.80
2022-10-23T03:46:33.218Z,13.80
2022-10-23T03:51:36.562Z,13.90
2022-10-23T03:56:39.899Z,13.90
2022-10-23T04:01:44.662Z,13.90
2022-10-23T04:06:48.096Z,13.90
2022-10-23T04:11:51.757Z,13.90
2022-10-23T04:16:56.745Z,13.80
2022-10-23T04:22:00.504Z,13.80
2022-10-23T04:27:04.236Z,13.80
2022-10-23T04:32:09.608Z,13.70
2022-10-23T04:37:13.164Z,13.70
2022-10-23T04:42:17.035Z,13.70
2022-10-23T04:47:21.791Z,13.70
2022-10-23T04:52:25.159Z,13.70
2022-10-23T04:57:28.721Z,13.70
2022-10-23T05:02:33.523Z,13.70
2022-10-23T05:07:37.476Z,13.70
2022-10-23T05:12:41.022Z,13.70
2022-10-23T05:17:49.023Z,13.60
2022-10-23T05:22:55.468Z,13.60
2022-10-23T05:27:59.040Z,13.60
2022-10-23T05:33:04.434Z,13.50
2022-10-23T05:38:09.406Z,13.50
2022-10-23T05:43:12.929Z,13.50
2022-10-23T05:48:33.346Z,13.60
2022-10-23T05:53:40.184Z,13.60
2022-10-23T05:58:46.102Z,13.60
2022-10-23T06:03:51.213Z,13.60
2022-10-23T06:08:55.317Z,13.60
2022-10-23T06:14:00.806Z,13.60
2022-10-23T06:19:05.949Z,13.60
2022-10-23T06:24:09.945Z,13.70
2022-10-23T06:29:13.210Z,13.70
2022-10-23T06:34:18.146Z,13.70
2022-10-23T06:39:22.451Z,13.70
2022-10-23T06:44:26.093Z,13.80
2022-10-23T06:49:31.164Z,13.80
2022-10-23T06:54:34.813Z,13.80
2022-10-23T06:59:38.191Z,13.80
2022-10-23T07:04:42.909Z,13.90
2022-10-23T07:09:46.270Z,14.00
2022-10-23T07:14:49.633Z,14.00
2022-10-23T07:19:54.871Z,14.00
2022-10-23T07:24:58.623Z,14.10
2022-10-23T07:30:01.911Z,14.20
2022-10-23T07:35:07.908Z,14.40
2022-10-23T07:40:12.242Z,14.40
2022-10-23T07:45:15.993Z,14.50
2022-10-23T07:50:20.863Z,14.60
2022-10-23T07:55:24.465Z,14.70
2022-10-23T08:00:27.896Z,14.80
2022-10-23T08:05:32.893Z,14.80
2022-10-23T08:10:36.421Z,14.90
2022-10-23T08:15:40.003Z,15.00
2022-10-23T08:20:46.770Z,15.10
2022-10-23T08:25:50.400Z,15.10
2022-10-23T08:30:53.869Z,15.30
2022-10-23T08:35:58.535Z,15.40
2022-10-23T08:41:02.849Z,15.50
2022-10-23T08:46:10.126Z,15.50
2022-10-23T08:51:18.706Z,15.60
2022-10-23T08:56:27.049Z,15.70
2022-10-23T09:01:38.695Z,15.80
2022-10-23T09:06:49.913Z,15.80
2022-10-23T09:12:01.207Z,15.90
2022-10-23T09:17:16.748Z,15.90
2022-10-23T09:22:21.379Z,16.00
2022-10-23T09:27:24.735Z,16.10
2022-10-23T09:32:35.944Z,16.20
2022-10-23T09:37:48.481Z,16.30
2022-10-23T09:42:57.644Z,16.40
2022-10-23T09:48:14.475Z,16.40
2022-10-23T09:53:33.189Z,16.50
2022-10-23T09:58:39.789Z,16.70
2022-10-23T10:03:50.287Z,16.80
2022-10-23T10:08:57.698Z,16.90
2022-10-23T10:14:24.081Z,17.00
2022-10-23T10:19:34.313Z,17.10
2022-10-23T10:24:47.205Z,17.20
2022-10-23T10:30:03.313Z,17.30
2022-10-23T10:35:23.344Z,17.40
2022-10-23T10:40:32.595Z,17.40
2022-10-23T10:45:40.335Z,17.50
2022-10-23T10:50:48.925Z,17.60
2022-10-23T10:55:56.827Z,17.60
2022-10-23T11:01:03.216Z,17.70
2022-10-23T11:06:14.057Z,17.70
2022-10-23T11:11:22.842Z,17.80
2022-10-23T11:16:30.442Z,17.90
2022-10-23T11:21:40.623Z,18.10
2022-10-23T11:26:58.359Z,18.20
2022-10-23T11:32:21.398Z,18.30
2022-10-23T11:37:26.830Z,18.50
2022-10-23T11:42:46.610Z,18.70
2022-10-23T11:47:58.788Z,18.90
2022-10-23T11:53:16.081Z,19.00
2022-10-23T11:58:24.091Z,19.20
2022-10-23T12:03:40.776Z,19.30
2022-10-23T12:08:44.788Z,19.40
2022-10-23T12:13:49.560Z,19.50
2022-10-23T12:18:55.784Z,19.60
2022-10-23T12:24:22.525Z,19.70
2022-10-23T12:29:41.027Z,19.80
2022-10-23T12:34:55.324Z,19.80
2022-10-23T12:40:01.990Z,19.90
2022-10-23T12:45:18.679Z,20.00
2022-10-23T12:50:23.834Z,20.10
2022-10-23T12:55:30.920Z,20.30
2022-10-23T13:00:38.212Z,20.40
2022-10-23T13:05:41.792Z,20.50
2022-10-23T13:10:45.598Z,20.70
2022-10-23T13:15:50.385Z,20.80
2022-10-23T13:20:59.528Z,20.90
2022-10-23T13:26:05.102Z,21.00
2022-10-23T13:31:27.165Z,21.10
2022-10-23T13:36:32.675Z,21.10
2022-10-23T13:41:39.368Z,21.20
2022-10-23T13:46:46.140Z,21.20
2022-10-23T13:51:51.921Z,21.20
2022-10-23T13:56:56.188Z,21.20
2022-10-23T14:02:01.231Z,21.10
2022-10-23T14:07:04.716Z,21.00
2022-10-23T14:12:08.474Z,21.00
2022-10-23T14:17:13.185Z,20.90
2022-10-23T14:22:16.607Z,20.80
2022-10-23T14:27:20.173Z,20.80
2022-10-23T14:32:24.844Z,20.70
2022-10-23T14:37:28.292Z,20.70
2022-10-23T14:42:34.352Z,20.60
2022-10-23T14:47:39.174Z,20.60
2022-10-23T14:52:42.430Z,20.50
2022-10-23T14:57:45.926Z,20.40
2022-10-23T15:02:51.134Z,20.30
2022-10-23T15:07:56.465Z,20.30
2022-10-23T15:12:59.809Z,20.20
2022-10-23T15:18:04.681Z,20.10
2022-10-23T15:23:08.044Z,20.00
2022-10-23T15:28:11.373Z,19.90
2022-10-23T15:33:19.211Z,19.80
2022-10-23T15:38:23.833Z,19.70
2022-10-23T15:43:27.313Z,19.60
2022-10-23T15:48:32.099Z,19.50
2022-10-23T15:53:35.429Z,19.40
2022-10-23T15:58:38.830Z,19.30
2022-10-23T16:03:43.759Z,19.20
2022-10-23T16:08:47.156Z,19.10
2022-10-23T16:13:51.066Z,19.10
2022-10-23T16:18:56.146Z,19.00
2022-10-23T16:24:01.512Z,18.90
2022-10-23T16:29:07.402Z,18.80
2022-10-23T16:34:12.511Z,18.70
2022-10-23T16:39:18.520Z,18.60
2022-10-23T16:44:21.789Z,18.50
2022-10-23T16:49:26.597Z,18.40
2022-10-23T16:54:29.999Z,18.30
2022-10-23T16:59:33.324Z,18.20
2022-10-23T17:04:39.000Z,18.20
2022-10-23T17:09:44.912Z,18.10
2022-10-23T17:14:48.295Z,18.00
2022-10-23T17:19:53.224Z,18.00
2022-10-23T17:24:56.740Z,17.90
2022-10-23T17:30:00.308Z,17.90
2022-10-23T17:35:07.998Z,17.80
2022-10-23T17:40:17.996Z,17.70
2022-10-23T17:45:24.414Z,17.70
2022-10-23T17:50:29.213Z,17.60
2022-10-23T17:55:32.566Z,17.60
2022-10-23T18:00:37.134Z,17.50
2022-10-23T18:05:41.805Z,17.50
2022-10-23T18:10:45.122Z,17.50
2022-10-23T18:15:48.623Z,17.40
2022-10-23T18:20:53.400Z,17.40
2022-10-23T18:25:57.406Z,17.30
2022-10-23T18:31:00.802Z,17.30
2022-10-23T18:36:13.325Z,17.20
2022-10-23T18:41:20.468Z,17.20
2022-10-23T18:46:23.887Z,17.10
2022-10-23T18:51:33.048Z,17.10
2022-10-23T18:56:38.317Z,17.00
2022-10-23T19:01:41.806Z,17.00
2022-10-23T19:06:47.597Z,17.00
2022-10-23T19:11:51.242Z,16.90
2022-10-23T19:17:01.030Z,16.90
2022-10-23T19:22:06.180Z,16.80
2022-10-23T19:27:09.905Z,16.80
2022-10-23T19:32:13.570Z,16.80
2022-10-23T19:37:18.243Z,16.80
2022-10-23T19:42:21.563Z,16.70
2022-10-23T19:47:25.128Z,16.80
2022-10-23T19:52:29.876Z,16.70
2022-10-23T19:57:34.802Z,16.70
2022-10-23T20:02:38.383Z,16.60
2022-10-23T20:07:44.067Z,16.70
2022-10-23T20:12:56.809Z,16.70
2022-10-23T20:18:06.397Z,16.60
2022-10-23T20:23:11.224Z,16.60
2022-10-23T20:28:15.339Z,16.60
2022-10-23T20:33:18.812Z,16.60
2022-10-23T20:38:23.419Z,16.50
2022-10-23T20:43:27.393Z,16.50
2022-10-23T20:48:35.208Z,16.50
2022-10-23T20:53:40.589Z,16.40
2022-10-23T20:58:43.979Z,16.40
2022-10-23T21:03:51.410Z,16.40
2022-10-23T21:08:57.876Z,16.30
2022-10-23T21:14:01.818Z,16.10
2022-10-23T21:19:07.007Z,16.10
2022-10-23T21:24:15.863Z,16.00
2022-10-23T21:29:20.494Z,15.90
2022-10-23T21:34:24.937Z,15.90
2022-10-23T21:39:29.759Z,15.90
2022-10-23T21:44:34.053Z,15.90
2022-10-23T21:49:37.423Z,15.90
2022-10-23T21:54:42.196Z,15.90
2022-10-23T21:59:45.718Z,15.90
2022-10-23T22:04:49.015Z,15.90
2022-10-23T22:09:53.727Z,15.90
2022-10-23T22:14:57.090Z,15.90
2022-10-23T22:20:00.631Z,15.90
2022-10-23T22:25:06.462Z,15.90
2022-10-23T22:30:10.431Z,15.80
2022-10-23T22:35:14.843Z,15.80
2022-10-23T22:40:19.639Z,15.80
2022-10-23T22:45:22.953Z,15.70
2022-10-23T22:50:26.260Z,15.70
2022-10-23T22:55:30.932Z,15.70
2022-10-23T23:00:34.498Z,15.70
2022-10-23T23:10:55.772Z,15.70
2022-10-23T23:15:59.396Z,15.70
2022-10-23T23:21:03.051Z,15.70
2022-10-23T23:26:08.396Z,15.70
2022-10-23T23:31:14.649Z,15.60
2022-10-23T23:36:21.295Z,15.70
2022-10-23T23:41:27.167Z,15.60
2022-10-23T23:46:31.059Z,15.70
2022-10-23T23:51:35.225Z,15.70
2022-10-23T23:56:40.137Z,15.60
